YSSYYAYE

Guest
Details From YSSY - Sydney Intl
To YAYE - Ayers Rock (connellan)
Flight Number -
Tags Generated
Created
Modified
Stats Distance 1,177 nm / 2,181 km
Max Altitude 0 ft / 0 m
Waypoints 3
Social Downloads 6
Likes 0
Share VATSIM

Download

Looking for another format? Having issues loading an existing format? Contact us
Advertisement - Login to hide

Notes

Generated

Route

YSSY AYEEM YAYE

ID Type Via Altitude Latitude Longitude Leg Dist Tot Dist Heading (true) Name
O YSSY APT - 0 ft / 0 m -33.94962˚ 151.18832˚ - 0 nm - -
AYEEM FIX - 0 ft / 0 m -25.19622˚ 130.99081˚ 1175 nm 1175 nm 291° / 301° -
O YAYE APT - 0 ft / 0 m -25.17811˚ 130.96656˚ 1 nm 1177 nm 310° / 310° -

Altitude Profile

Advertisement - Login to hide

Weather


0- 5 10 15 20 25 30 35+ Temperature / ° C

Clouds and Precipitation
Forecast for 2017-12-11 12:00 UTC. Updated 2 hours ago

Ground ~20,000 ft ~40,000 ft Winds

YSSY

Details ICAO YSSY (SYD)
Name Sydney Intl
Region Australia
Timezone Australia/Sydney (UTC+11.0)
Stats Elevation 21 ft / 6 m (AMSL)
Location -33.949273° 151.181347°
Runways 3
Magnetic Variation 12.599° E

METAR

YSSY 111030Z 04008KT 9999 FEW022 SCT100 23/18 Q1018 NOSIG

Decode

TAF

TAF AMD YSSY 110505Z 1106/1212 04018KT CAVOK FM110900 06008KT 9999 FEW020 FM111200 08005KT 9999 SCT020 BKN030 FM112200 04012KT 9999 SCT035 FM120100 05015G25KT CAVOK FM121000 03012KT CAVOK

Decode

Departure Runways

ID Width Length Bearing (true) Bearing (mag) Surface Threshold Offset Overrun Length
07 148 ft / 45 m 8,285 ft / 2,525 m 74.13° 61.53° Asphalt 0 ft / 0 m 0 ft / 0 m
16L 148 ft / 45 m 8,018 ft / 2,444 m 167.81° 155.21° Asphalt 758 ft / 231 m 0 ft / 0 m
16R 148 ft / 45 m 13,033 ft / 3,973 m 167.86° 155.26° Asphalt 279 ft / 85 m 0 ft / 0 m
25 148 ft / 45 m 8,285 ft / 2,525 m 254.12° 241.52° Asphalt 324 ft / 99 m 0 ft / 0 m
34L 148 ft / 45 m 13,033 ft / 3,973 m 347.85° 335.25° Asphalt 0 ft / 0 m 0 ft / 0 m
34R 148 ft / 45 m 8,018 ft / 2,444 m 347.81° 335.21° Asphalt 125 ft / 38 m 0 ft / 0 m

YAYE

Details ICAO YAYE (AYQ)
Name Ayers Rock
Region Australia
Timezone Australia/Darwin (UTC+9.5)
Stats Elevation 1,625 ft / 495 m (AMSL)
Location -25.185555° 130.976642°
Runways 1
Magnetic Variation 3.931° E

METAR

YAYE 111000Z AUTO 15003KT 9999 // NCD 33/M03 Q1014

Decode

TAF

Not found

Destination Runways

ID Width Length Bearing (true) Bearing (mag) Surface Threshold Offset Overrun Length
13 98 ft / 30 m 8,526 ft / 2,599 m 129.70° 125.77° Asphalt 0 ft / 0 m 0 ft / 0 m
31 98 ft / 30 m 8,526 ft / 2,599 m 309.70° 305.77° Asphalt 0 ft / 0 m 0 ft / 0 m

Popular Alternatives